Terminal Aerodrome Forecast
Issued by NWS Wilmington, NC

Home | Current Version | Previous Version | Text Only | Print | Product List | Glossary On
Versions: 1 2 3 4 5 6 7 8 9 10 11 12 13 14 15 16
000
FTUS42 KILM 281725
TAFFLO
TAF
KFLO 281725Z 2818/2918 11007KT P6SM SCT035 SCT120
     FM290300 VRB03KT P6SM SCT110
      TEMPO 2909/2912 3SM BR
     FM291500 10005KT P6SM BKN060=

USA.gov is the U.S. government's official web portal to all federal, state and local government web resources and services.